sim
Sign-in with your pilot id or email,
or register
Callsign
Passwort

Schedule Details

Flight Number: RYR5142 (4)
Departure: Karlsruhe/Baden-Baden Airport (EDSB) at 06:50
Arrival: Thessaloniki International Airport (LGTS) at 09:25
Route: Ryanair Passenger Schedule. Enter filed route here before submitting Pirep.

Weather Information
Getting current METAR information for EDSB 211520Z 22005KT CAVOK 14/06 Q1028
Getting current METAR information for LGTS 211520Z 35006KT CAVOK 16/00 Q1021 NOSIG

Schedule Frequency

Route Map